sensor_id;sensor_type;location;lat;lon;timestamp;pressure;altitude;pressure_sealevel;temperature;humidity
26823;BME280;14852;51.910;8.878;2024-03-02T00:00:20;98520.88;;;9.38;57.67
26823;BME280;14852;51.910;8.878;2024-03-02T00:02:48;98519.94;;;9.39;57.33
26823;BME280;14852;51.910;8.878;2024-03-02T00:07:44;98520.13;;;9.36;57.45
26823;BME280;14852;51.910;8.878;2024-03-02T00:10:16;98516.94;;;9.33;57.83
26823;BME280;14852;51.910;8.878;2024-03-02T00:12:42;98517.03;;;9.31;57.34
26823;BME280;14852;51.910;8.878;2024-03-02T00:15:47;98514.25;;;9.34;57.46
26823;BME280;14852;51.910;8.878;2024-03-02T00:18:16;98505.84;;;9.31;57.84
26823;BME280;14852;51.910;8.878;2024-03-02T00:20:43;98508.34;;;9.32;57.56
26823;BME280;14852;51.910;8.878;2024-03-02T00:23:12;98516.00;;;9.34;57.64
26823;BME280;14852;51.910;8.878;2024-03-02T00:25:47;98520.13;;;9.36;57.37
26823;BME280;14852;51.910;8.878;2024-03-02T00:28:24;98524.91;;;9.42;57.66
26823;BME280;14852;51.910;8.878;2024-03-02T00:33:44;98514.75;;;9.52;57.32
26823;BME280;14852;51.910;8.878;2024-03-02T00:36:12;98519.50;;;9.58;57.22
26823;BME280;14852;51.910;8.878;2024-03-02T00:38:49;98519.94;;;9.65;57.31
26823;BME280;14852;51.910;8.878;2024-03-02T00:41:24;98515.38;;;9.68;56.83
26823;BME280;14852;51.910;8.878;2024-03-02T00:44:09;98511.53;;;9.74;56.86
26823;BME280;14852;51.910;8.878;2024-03-02T00:46:38;98517.66;;;9.73;56.81
26823;BME280;14852;51.910;8.878;2024-03-02T00:49:20;98518.69;;;9.70;57.16
26823;BME280;14852;51.910;8.878;2024-03-02T00:51:48;98516.09;;;9.70;57.14
26823;BME280;14852;51.910;8.878;2024-03-02T00:54:25;98513.63;;;9.69;57.27
26823;BME280;14852;51.910;8.878;2024-03-02T00:56:52;98507.81;;;9.65;57.03
26823;BME280;14852;51.910;8.878;2024-03-02T00:59:21;98511.44;;;9.63;57.15
26823;BME280;14852;51.910;8.878;2024-03-02T01:01:48;98513.41;;;9.59;57.04
26823;BME280;14852;51.910;8.878;2024-03-02T01:04:14;98507.06;;;9.51;57.01
26823;BME280;14852;51.910;8.878;2024-03-02T01:06:42;98504.78;;;9.46;56.98
26823;BME280;14852;51.910;8.878;2024-03-02T01:09:08;98502.53;;;9.41;57.34
26823;BME280;14852;51.910;8.878;2024-03-02T01:11:33;98494.13;;;9.38;57.65
26823;BME280;14852;51.910;8.878;2024-03-02T01:13:59;98503.88;;;9.34;57.58
26823;BME280;14852;51.910;8.878;2024-03-02T01:16:25;98505.09;;;9.29;57.33
26823;BME280;14852;51.910;8.878;2024-03-02T01:18:51;98504.56;;;9.24;57.41
26823;BME280;14852;51.910;8.878;2024-03-02T01:21:17;98498.97;;;9.17;57.92
26823;BME280;14852;51.910;8.878;2024-03-02T01:23:43;98500.09;;;9.13;57.82
26823;BME280;14852;51.910;8.878;2024-03-02T01:26:09;98503.03;;;9.08;57.66
26823;BME280;14852;51.910;8.878;2024-03-02T01:28:34;98494.81;;;9.02;57.96
26823;BME280;14852;51.910;8.878;2024-03-02T01:31:00;98495.97;;;8.98;58.18
26823;BME280;14852;51.910;8.878;2024-03-02T01:33:27;98497.91;;;8.94;58.02
26823;BME280;14852;51.910;8.878;2024-03-02T01:35:53;98493.84;;;8.90;57.91
26823;BME280;14852;51.910;8.878;2024-03-02T01:38:19;98498.63;;;8.84;58.50
26823;BME280;14852;51.910;8.878;2024-03-02T01:40:45;98498.06;;;8.79;58.46
26823;BME280;14852;51.910;8.878;2024-03-02T01:43:11;98496.72;;;8.73;58.36
26823;BME280;14852;51.910;8.878;2024-03-02T01:45:36;98496.19;;;8.68;58.61
26823;BME280;14852;51.910;8.878;2024-03-02T01:48:05;98493.91;;;8.63;58.29
26823;BME280;14852;51.910;8.878;2024-03-02T01:50:33;98491.78;;;8.56;58.78
26823;BME280;14852;51.910;8.878;2024-03-02T01:52:59;98492.09;;;8.51;58.69
26823;BME280;14852;51.910;8.878;2024-03-02T01:55:26;98489.78;;;8.47;58.96
26823;BME280;14852;51.910;8.878;2024-03-02T01:57:53;98483.88;;;8.45;58.53
26823;BME280;14852;51.910;8.878;2024-03-02T02:00:22;98485.53;;;8.46;58.87
26823;BME280;14852;51.910;8.878;2024-03-02T02:02:51;98484.81;;;8.44;58.71
26823;BME280;14852;51.910;8.878;2024-03-02T02:05:17;98488.31;;;8.43;58.96
26823;BME280;14852;51.910;8.878;2024-03-02T02:07:43;98481.59;;;8.40;58.72
26823;BME280;14852;51.910;8.878;2024-03-02T02:10:10;98475.78;;;8.37;59.17
26823;BME280;14852;51.910;8.878;2024-03-02T02:12:36;98474.13;;;8.35;59.22
26823;BME280;14852;51.910;8.878;2024-03-02T02:15:03;98465.53;;;8.35;58.99
26823;BME280;14852;51.910;8.878;2024-03-02T02:17:29;98464.69;;;8.34;59.06
26823;BME280;14852;51.910;8.878;2024-03-02T02:19:55;98458.69;;;8.34;59.37
26823;BME280;14852;51.910;8.878;2024-03-02T02:22:20;98451.00;;;8.32;59.03
26823;BME280;14852;51.910;8.878;2024-03-02T02:24:46;98450.28;;;8.30;59.36
26823;BME280;14852;51.910;8.878;2024-03-02T02:27:12;98446.94;;;8.28;59.16
26823;BME280;14852;51.910;8.878;2024-03-02T02:29:41;98448.78;;;8.26;59.35
26823;BME280;14852;51.910;8.878;2024-03-02T02:32:07;98438.63;;;8.23;59.48
26823;BME280;14852;51.910;8.878;2024-03-02T02:34:33;98444.00;;;8.20;59.36
26823;BME280;14852;51.910;8.878;2024-03-02T02:36:59;98444.22;;;8.17;59.84
26823;BME280;14852;51.910;8.878;2024-03-02T02:39:25;98442.56;;;8.16;59.74
26823;BME280;14852;51.910;8.878;2024-03-02T02:41:50;98441.72;;;8.16;59.88
26823;BME280;14852;51.910;8.878;2024-03-02T02:44:16;98439.41;;;8.11;59.62
26823;BME280;14852;51.910;8.878;2024-03-02T02:46:42;98442.19;;;8.08;60.03
26823;BME280;14852;51.910;8.878;2024-03-02T02:49:08;98432.88;;;8.06;60.10
26823;BME280;14852;51.910;8.878;2024-03-02T02:51:33;98435.66;;;8.03;60.26
26823;BME280;14852;51.910;8.878;2024-03-02T02:53:59;98433.16;;;8.01;60.21
26823;BME280;14852;51.910;8.878;2024-03-02T02:56:25;98432.41;;;7.99;60.30
26823;BME280;14852;51.910;8.878;2024-03-02T02:58:51;98426.41;;;7.98;60.25
26823;BME280;14852;51.910;8.878;2024-03-02T03:01:17;98425.69;;;7.96;60.05
26823;BME280;14852;51.910;8.878;2024-03-02T03:03:44;98419.06;;;7.92;60.49
26823;BME280;14852;51.910;8.878;2024-03-02T03:06:10;98415.63;;;7.92;60.35
26823;BME280;14852;51.910;8.878;2024-03-02T03:08:36;98418.41;;;7.89;60.90
26823;BME280;14852;51.910;8.878;2024-03-02T03:11:02;98424.50;;;7.88;60.93
26823;BME280;14852;51.910;8.878;2024-03-02T03:13:28;98427.19;;;7.86;60.83
26823;BME280;14852;51.910;8.878;2024-03-02T03:15:54;98415.19;;;7.85;61.03
26823;BME280;14852;51.910;8.878;2024-03-02T03:18:19;98417.75;;;7.85;61.42
26823;BME280;14852;51.910;8.878;2024-03-02T03:20:45;98411.75;;;7.85;61.13
26823;BME280;14852;51.910;8.878;2024-03-02T03:23:11;98411.56;;;7.88;61.35
26823;BME280;14852;51.910;8.878;2024-03-02T03:25:41;98417.59;;;7.88;61.64
26823;BME280;14852;51.910;8.878;2024-03-02T03:28:08;98411.56;;;7.88;61.61
26823;BME280;14852;51.910;8.878;2024-03-02T03:30:37;98416.75;;;7.88;61.25
26823;BME280;14852;51.910;8.878;2024-03-02T03:33:04;98416.66;;;7.89;61.16
26823;BME280;14852;51.910;8.878;2024-03-02T03:35:32;98416.66;;;7.89;61.81
26823;BME280;14852;51.910;8.878;2024-03-02T03:37:57;98412.41;;;7.88;61.62
26823;BME280;14852;51.910;8.878;2024-03-02T03:40:24;98409.09;;;7.86;61.65
26823;BME280;14852;51.910;8.878;2024-03-02T03:42:49;98421.91;;;7.88;61.83
26823;BME280;14852;51.910;8.878;2024-03-02T03:45:16;98407.41;;;7.85;61.98
26823;BME280;14852;51.910;8.878;2024-03-02T03:47:42;98401.41;;;7.85;61.64
26823;BME280;14852;51.910;8.878;2024-03-02T03:50:08;98402.25;;;7.85;62.02
26823;BME280;14852;51.910;8.878;2024-03-02T03:52:34;98401.31;;;7.86;62.12
26823;BME280;14852;51.910;8.878;2024-03-02T03:55:00;98408.38;;;7.84;61.94
26823;BME280;14852;51.910;8.878;2024-03-02T03:57:26;98406.59;;;7.85;62.30
26823;BME280;14852;51.910;8.878;2024-03-02T03:59:53;98401.53;;;7.83;62.16
26823;BME280;14852;51.910;8.878;2024-03-02T04:02:19;98401.53;;;7.83;62.42
26823;BME280;14852;51.910;8.878;2024-03-02T04:04:45;98399.66;;;7.85;62.25
26823;BME280;14852;51.910;8.878;2024-03-02T04:07:10;98405.56;;;7.87;62.26
26823;BME280;14852;51.910;8.878;2024-03-02T04:09:36;98407.22;;;7.88;62.09
26823;BME280;14852;51.910;8.878;2024-03-02T04:12:02;98415.63;;;7.92;62.41
26823;BME280;14852;51.910;8.878;2024-03-02T04:14:28;98408.72;;;7.92;62.22
26823;BME280;14852;51.910;8.878;2024-03-02T04:16:53;98422.38;;;7.94;62.33
26823;BME280;14852;51.910;8.878;2024-03-02T04:19:19;98423.91;;;7.97;61.91
26823;BME280;14852;51.910;8.878;2024-03-02T04:21:45;98424.66;;;7.99;62.18
26823;BME280;14852;51.910;8.878;2024-03-02T04:24:11;98420.41;;;7.98;62.21
26823;BME280;14852;51.910;8.878;2024-03-02T04:26:36;98423.09;;;7.96;62.16
26823;BME280;14852;51.910;8.878;2024-03-02T04:29:02;98418.03;;;7.95;62.07
26823;BME280;14852;51.910;8.878;2024-03-02T04:31:28;98425.81;;;7.95;61.95
26823;BME280;14852;51.910;8.878;2024-03-02T04:33:54;98431.91;;;7.94;62.17
26823;BME280;14852;51.910;8.878;2024-03-02T04:36:20;98425.81;;;7.95;62.22
26823;BME280;14852;51.910;8.878;2024-03-02T04:38:46;98431.91;;;7.94;62.26
26823;BME280;14852;51.910;8.878;2024-03-02T04:41:12;98424.88;;;7.96;62.76
26823;BME280;14852;51.910;8.878;2024-03-02T04:43:38;98429.09;;;7.97;62.56
26823;BME280;14852;51.910;8.878;2024-03-02T04:46:05;98424.66;;;7.99;62.35
26823;BME280;14852;51.910;8.878;2024-03-02T04:48:32;98435.09;;;7.97;62.50
26823;BME280;14852;51.910;8.878;2024-03-02T04:50:58;98432.50;;;7.97;62.57
26823;BME280;14852;51.910;8.878;2024-03-02T04:53:24;98436.75;;;7.98;62.43
26823;BME280;14852;51.910;8.878;2024-03-02T04:55:49;98432.50;;;7.97;62.46
26823;BME280;14852;51.910;8.878;2024-03-02T04:58:35;98422.28;;;7.96;62.56
26823;BME280;14852;51.910;8.878;2024-03-02T05:01:01;98433.44;;;7.96;62.29
26823;BME280;14852;51.910;8.878;2024-03-02T05:03:27;98426.41;;;7.98;62.21
26823;BME280;14852;51.910;8.878;2024-03-02T05:05:52;98436.66;;;8.00;62.50
26823;BME280;14852;51.910;8.878;2024-03-02T05:08:18;98433.16;;;8.01;62.59
26823;BME280;14852;51.910;8.878;2024-03-02T05:10:44;98435.56;;;8.04;62.52
26823;BME280;14852;51.910;8.878;2024-03-02T05:13:10;98432.88;;;8.06;62.23
26823;BME280;14852;51.910;8.878;2024-03-02T05:15:35;98436.19;;;8.08;62.63
26823;BME280;14852;51.910;8.878;2024-03-02T05:18:01;98440.34;;;8.10;62.42
26823;BME280;14852;51.910;8.878;2024-03-02T05:20:30;98446.16;;;8.14;62.28
26823;BME280;14852;51.910;8.878;2024-03-02T05:22:56;98447.72;;;8.16;62.30
26823;BME280;14852;51.910;8.878;2024-03-02T05:25:22;98440.78;;;8.17;62.38
26823;BME280;14852;51.910;8.878;2024-03-02T05:27:48;98448.56;;;8.17;62.58
26823;BME280;14852;51.910;8.878;2024-03-02T05:30:14;98448.56;;;8.17;62.30
26823;BME280;14852;51.910;8.878;2024-03-02T05:32:40;98446.81;;;8.17;62.78
26823;BME280;14852;51.910;8.878;2024-03-02T05:35:06;98439.75;;;8.19;62.59
26823;BME280;14852;51.910;8.878;2024-03-02T05:37:33;98456.22;;;8.18;62.59
26823;BME280;14852;51.910;8.878;2024-03-02T05:39:59;98451.88;;;8.19;62.60
26823;BME280;14852;51.910;8.878;2024-03-02T05:42:25;98455.41;;;8.18;62.30
26823;BME280;14852;51.910;8.878;2024-03-02T05:44:50;98455.56;;;8.15;62.41
26823;BME280;14852;51.910;8.878;2024-03-02T05:47:16;98456.50;;;8.14;62.72
26823;BME280;14852;51.910;8.878;2024-03-02T05:49:42;98459.91;;;8.14;62.50
26823;BME280;14852;51.910;8.878;2024-03-02T05:52:08;98461.78;;;8.12;62.43
26823;BME280;14852;51.910;8.878;2024-03-02T05:54:34;98459.38;;;8.09;62.86
26823;BME280;14852;51.910;8.878;2024-03-02T05:57:00;98457.00;;;8.06;62.48
26823;BME280;14852;51.910;8.878;2024-03-02T05:59:42;98465.03;;;8.02;62.92
26823;BME280;14852;51.910;8.878;2024-03-02T06:02:09;98459.94;;;8.00;62.55
26823;BME280;14852;51.910;8.878;2024-03-02T06:04:34;98467.81;;;7.98;63.05
26823;BME280;14852;51.910;8.878;2024-03-02T06:07:00;98470.47;;;7.97;63.05
26823;BME280;14852;51.910;8.878;2024-03-02T06:09:26;98467.28;;;7.93;62.90
26823;BME280;14852;51.910;8.878;2024-03-02T06:11:52;98469.03;;;7.93;62.89
26823;BME280;14852;51.910;8.878;2024-03-02T06:14:17;98472.34;;;7.95;62.66
26823;BME280;14852;51.910;8.878;2024-03-02T06:16:43;98472.22;;;7.96;62.82
26823;BME280;14852;51.910;8.878;2024-03-02T06:19:09;98472.16;;;7.98;62.60
26823;BME280;14852;51.910;8.878;2024-03-02T06:21:34;98468.63;;;7.99;62.92
26823;BME280;14852;51.910;8.878;2024-03-02T06:24:00;98476.31;;;8.00;62.69
26823;BME280;14852;51.910;8.878;2024-03-02T06:26:26;98470.94;;;8.04;62.55
26823;BME280;14852;51.910;8.878;2024-03-02T06:28:52;98482.75;;;8.08;62.70
26823;BME280;14852;51.910;8.878;2024-03-02T06:31:18;98477.19;;;8.14;62.56
26823;BME280;14852;51.910;8.878;2024-03-02T06:33:44;98485.59;;;8.17;62.48
26823;BME280;14852;51.910;8.878;2024-03-02T06:36:09;98490.47;;;8.22;62.37
26823;BME280;14852;51.910;8.878;2024-03-02T06:38:37;98491.03;;;8.27;62.31
26823;BME280;14852;51.910;8.878;2024-03-02T06:41:03;98501.94;;;8.32;62.31
26823;BME280;14852;51.910;8.878;2024-03-02T06:43:29;98497.22;;;8.39;62.40
26823;BME280;14852;51.910;8.878;2024-03-02T06:45:54;98500.25;;;8.45;62.16
26823;BME280;14852;51.910;8.878;2024-03-02T06:48:20;98504.13;;;8.52;62.08
26823;BME280;14852;51.910;8.878;2024-03-02T06:50:47;98503.44;;;8.63;62.24
26823;BME280;14852;51.910;8.878;2024-03-02T06:53:16;98505.84;;;8.79;61.79
26823;BME280;14852;51.910;8.878;2024-03-02T06:55:46;98494.19;;;8.98;61.27
26823;BME280;14852;51.910;8.878;2024-03-02T06:58:13;98500.63;;;9.18;61.38
26823;BME280;14852;51.910;8.878;2024-03-02T07:00:41;98502.72;;;9.64;59.96
26823;BME280;14852;51.910;8.878;2024-03-02T07:03:06;98489.03;;;10.24;58.83
26823;BME280;14852;51.910;8.878;2024-03-02T07:05:32;98484.25;;;10.89;57.60
26823;BME280;14852;51.910;8.878;2024-03-02T07:08:01;98482.78;;;11.09;56.80
26823;BME280;14852;51.910;8.878;2024-03-02T07:10:34;98483.94;;;10.94;57.20
26823;BME280;14852;51.910;8.878;2024-03-02T07:13:00;98488.66;;;10.65;57.68
26823;BME280;14852;51.910;8.878;2024-03-02T07:15:26;98488.06;;;10.37;58.59
26823;BME280;14852;51.910;8.878;2024-03-02T07:18:10;98499.22;;;10.14;59.74
26823;BME280;14852;51.910;8.878;2024-03-02T07:20:39;98504.66;;;9.98;60.24
26823;BME280;14852;51.910;8.878;2024-03-02T07:23:05;98511.31;;;9.90;60.77
26823;BME280;14852;51.910;8.878;2024-03-02T07:25:31;98508.19;;;9.85;60.78
26823;BME280;14852;51.910;8.878;2024-03-02T07:27:57;98508.28;;;9.83;60.59
26823;BME280;14852;51.910;8.878;2024-03-02T07:30:22;98521.78;;;9.88;60.72
26823;BME280;14852;51.910;8.878;2024-03-02T07:32:50;98519.09;;;9.90;60.73
26823;BME280;14852;51.910;8.878;2024-03-02T07:35:16;98526.34;;;9.97;60.53
26823;BME280;14852;51.910;8.878;2024-03-02T07:37:43;98527.25;;;10.09;60.73
26823;BME280;14852;51.910;8.878;2024-03-02T07:40:10;98525.28;;;10.25;60.07
26823;BME280;14852;51.910;8.878;2024-03-02T07:42:40;98518.88;;;10.42;59.62
26823;BME280;14852;51.910;8.878;2024-03-02T07:45:06;98533.19;;;10.47;59.90
26823;BME280;14852;51.910;8.878;2024-03-02T07:47:34;98525.41;;;10.47;59.47
26823;BME280;14852;51.910;8.878;2024-03-02T07:50:00;98532.97;;;10.50;60.07
26823;BME280;14852;51.910;8.878;2024-03-02T07:52:26;98526.41;;;10.58;59.64
26823;BME280;14852;51.910;8.878;2024-03-02T07:54:52;98531.97;;;10.64;59.72
26823;BME280;14852;51.910;8.878;2024-03-02T07:57:17;98537.69;;;10.69;59.45
26823;BME280;14852;51.910;8.878;2024-03-02T07:59:43;98538.63;;;10.68;59.33
26823;BME280;14852;51.910;8.878;2024-03-02T08:02:09;98542.66;;;10.72;59.55
26823;BME280;14852;51.910;8.878;2024-03-02T08:04:35;98539.50;;;10.80;59.28
26823;BME280;14852;51.910;8.878;2024-03-02T08:07:02;98545.31;;;10.83;59.22
26823;BME280;14852;51.910;8.878;2024-03-02T08:09:28;98546.63;;;10.89;58.99
26823;BME280;14852;51.910;8.878;2024-03-02T08:11:54;98548.47;;;11.11;58.54
26823;BME280;14852;51.910;8.878;2024-03-02T08:14:20;98546.16;;;11.65;57.70
26823;BME280;14852;51.910;8.878;2024-03-02T08:16:46;98547.94;;;12.31;56.42
26823;BME280;14852;51.910;8.878;2024-03-02T08:19:11;98547.91;;;12.86;55.21
26823;BME280;14852;51.910;8.878;2024-03-02T08:21:37;98547.19;;;13.48;54.04
26823;BME280;14852;51.910;8.878;2024-03-02T08:24:03;98552.78;;;14.25;52.22
26823;BME280;14852;51.910;8.878;2024-03-02T08:26:29;98546.31;;;14.78;51.30
26823;BME280;14852;51.910;8.878;2024-03-02T08:29:00;98545.38;;;15.08;50.78
26823;BME280;14852;51.910;8.878;2024-03-02T08:31:27;98550.88;;;15.15;50.55
26823;BME280;14852;51.910;8.878;2024-03-02T08:33:53;98544.41;;;15.29;50.90
26823;BME280;14852;51.910;8.878;2024-03-02T08:36:19;98541.06;;;15.36;50.79
26823;BME280;14852;51.910;8.878;2024-03-02T08:38:45;98539.03;;;15.20;51.02
26823;BME280;14852;51.910;8.878;2024-03-02T08:41:11;98543.88;;;14.96;51.80
26823;BME280;14852;51.910;8.878;2024-03-02T08:43:41;98545.66;;;14.86;52.13
26823;BME280;14852;51.910;8.878;2024-03-02T08:46:07;98548.63;;;15.49;50.83
26823;BME280;14852;51.910;8.878;2024-03-02T08:48:32;98551.63;;;16.20;49.38
26823;BME280;14852;51.910;8.878;2024-03-02T08:50:58;98545.28;;;16.95;48.22
26823;BME280;14852;51.910;8.878;2024-03-02T08:53:24;98551.03;;;18.12;46.15
26823;BME280;14852;51.910;8.878;2024-03-02T08:55:50;98555.78;;;19.00;44.00
26823;BME280;14852;51.910;8.878;2024-03-02T08:58:16;98546.41;;;19.71;43.04
26823;BME280;14852;51.910;8.878;2024-03-02T09:00:42;98543.25;;;20.39;42.00
26823;BME280;14852;51.910;8.878;2024-03-02T09:03:08;98535.75;;;20.81;41.22
26823;BME280;14852;51.910;8.878;2024-03-02T09:05:33;98537.34;;;21.21;40.73
26823;BME280;14852;51.910;8.878;2024-03-02T09:07:59;98534.50;;;21.46;40.10
26823;BME280;14852;51.910;8.878;2024-03-02T09:10:25;98531.19;;;21.44;39.75
26823;BME280;14852;51.910;8.878;2024-03-02T09:12:51;98531.13;;;21.52;39.34
26823;BME280;14852;51.910;8.878;2024-03-02T09:15:17;98530.66;;;22.00;39.25
26823;BME280;14852;51.910;8.878;2024-03-02T09:17:43;98538.53;;;22.59;38.65
26823;BME280;14852;51.910;8.878;2024-03-02T09:20:10;98534.56;;;23.06;37.78
26823;BME280;14852;51.910;8.878;2024-03-02T09:22:36;98521.31;;;23.06;37.68
26823;BME280;14852;51.910;8.878;2024-03-02T09:25:02;98530.78;;;22.94;37.50
26823;BME280;14852;51.910;8.878;2024-03-02T09:27:28;98533.59;;;22.92;37.33
26823;BME280;14852;51.910;8.878;2024-03-02T09:29:54;98526.28;;;23.16;37.26
26823;BME280;14852;51.910;8.878;2024-03-02T09:32:19;98522.97;;;23.56;35.97
26823;BME280;14852;51.910;8.878;2024-03-02T09:34:45;98526.34;;;23.22;36.73
26823;BME280;14852;51.910;8.878;2024-03-02T09:37:11;98527.47;;;22.56;37.62
26823;BME280;14852;51.910;8.878;2024-03-02T09:39:36;98523.69;;;22.29;38.21
26823;BME280;14852;51.910;8.878;2024-03-02T09:42:04;98530.13;;;21.82;38.42
26823;BME280;14852;51.910;8.878;2024-03-02T09:44:30;98527.81;;;21.50;39.24
26823;BME280;14852;51.910;8.878;2024-03-02T09:46:56;98528.75;;;21.19;39.27
26823;BME280;14852;51.910;8.878;2024-03-02T09:49:22;98533.19;;;20.96;39.66
26823;BME280;14852;51.910;8.878;2024-03-02T09:51:49;98541.63;;;20.38;40.39
26823;BME280;14852;51.910;8.878;2024-03-02T09:54:18;98538.66;;;19.69;40.66
26823;BME280;14852;51.910;8.878;2024-03-02T09:56:47;98539.97;;;19.08;42.03
26823;BME280;14852;51.910;8.878;2024-03-02T09:59:12;98550.94;;;18.71;43.35
26823;BME280;14852;51.910;8.878;2024-03-02T10:01:56;98542.75;;;18.32;44.63
26823;BME280;14852;51.910;8.878;2024-03-02T10:04:26;98537.53;;;17.72;45.14
26823;BME280;14852;51.910;8.878;2024-03-02T10:07:18;98542.63;;;17.30;46.76
26823;BME280;14852;51.910;8.878;2024-03-02T10:09:45;98546.06;;;17.13;47.76
26823;BME280;14852;51.910;8.878;2024-03-02T10:12:14;98544.66;;;17.01;47.52
26823;BME280;14852;51.910;8.878;2024-03-02T10:14:41;98546.81;;;16.88;47.49
26823;BME280;14852;51.910;8.878;2024-03-02T10:17:09;98555.16;;;16.83;47.19
26823;BME280;14852;51.910;8.878;2024-03-02T10:19:36;98546.16;;;16.86;47.88
26823;BME280;14852;51.910;8.878;2024-03-02T10:22:07;98559.28;;;17.04;48.18
26823;BME280;14852;51.910;8.878;2024-03-02T10:24:41;98553.47;;;17.35;48.33
26823;BME280;14852;51.910;8.878;2024-03-02T10:27:19;98546.72;;;17.51;47.81
26823;BME280;14852;51.910;8.878;2024-03-02T10:29:48;98543.22;;;17.68;47.30
26823;BME280;14852;51.910;8.878;2024-03-02T10:32:15;98542.94;;;17.71;46.65
26823;BME280;14852;51.910;8.878;2024-03-02T10:34:44;98533.78;;;17.75;46.62
26823;BME280;14852;51.910;8.878;2024-03-02T10:37:11;98539.78;;;17.67;44.97
26823;BME280;14852;51.910;8.878;2024-03-02T10:39:38;98538.06;;;17.58;45.29
26823;BME280;14852;51.910;8.878;2024-03-02T10:42:08;98538.06;;;17.58;44.98
26823;BME280;14852;51.910;8.878;2024-03-02T10:44:34;98537.38;;;17.56;45.02
26823;BME280;14852;51.910;8.878;2024-03-02T10:47:05;98536.69;;;17.54;44.70
26823;BME280;14852;51.910;8.878;2024-03-02T10:49:32;98545.59;;;17.53;44.19
26823;BME280;14852;51.910;8.878;2024-03-02T10:52:01;98535.56;;;17.57;44.33
26823;BME280;14852;51.910;8.878;2024-03-02T10:54:27;98543.16;;;17.60;44.93
26823;BME280;14852;51.910;8.878;2024-03-02T10:56:58;98537.69;;;17.71;45.09
26823;BME280;14852;51.910;8.878;2024-03-02T10:59:32;98544.88;;;17.95;44.98
26823;BME280;14852;51.910;8.878;2024-03-02T11:02:00;98535.06;;;18.05;45.68
26823;BME280;14852;51.910;8.878;2024-03-02T11:04:28;98534.63;;;18.18;44.76
26823;BME280;14852;51.910;8.878;2024-03-02T11:07:10;98539.88;;;18.09;44.02
26823;BME280;14852;51.910;8.878;2024-03-02T11:09:41;98555.28;;;18.04;44.01
26823;BME280;14852;51.910;8.878;2024-03-02T11:12:22;98547.50;;;17.95;44.17
26823;BME280;14852;51.910;8.878;2024-03-02T11:14:51;98538.69;;;18.12;44.72
26823;BME280;14852;51.910;8.878;2024-03-02T11:17:18;98537.94;;;18.20;43.75
26823;BME280;14852;51.910;8.878;2024-03-02T11:19:45;98536.97;;;18.21;43.59
26823;BME280;14852;51.910;8.878;2024-03-02T11:22:12;98533.81;;;18.17;43.63
26823;BME280;14852;51.910;8.878;2024-03-02T11:24:38;98535.31;;;18.20;43.18
26823;BME280;14852;51.910;8.878;2024-03-02T11:27:06;98522.31;;;18.18;43.22
26823;BME280;14852;51.910;8.878;2024-03-02T11:32:26;98531.31;;;18.07;42.69
26823;BME280;14852;51.910;8.878;2024-03-02T11:34:52;98524.69;;;17.95;42.49
26823;BME280;14852;51.910;8.878;2024-03-02T11:37:19;98519.69;;;17.84;41.94
26823;BME280;14852;51.910;8.878;2024-03-02T11:39:48;98517.03;;;17.76;43.07
26823;BME280;14852;51.910;8.878;2024-03-02T11:42:15;98518.84;;;17.76;42.21
26823;BME280;14852;51.910;8.878;2024-03-02T11:44:46;98526.72;;;17.76;42.95
26823;BME280;14852;51.910;8.878;2024-03-02T11:47:15;98517.75;;;17.86;42.17
26823;BME280;14852;51.910;8.878;2024-03-02T11:49:46;98507.63;;;17.99;42.99
26823;BME280;14852;51.910;8.878;2024-03-02T11:52:13;98503.41;;;18.15;42.79
26823;BME280;14852;51.910;8.878;2024-03-02T11:54:43;98515.94;;;18.29;42.64
26823;BME280;14852;51.910;8.878;2024-03-02T11:57:21;98508.19;;;18.19;41.52
26823;BME280;14852;51.910;8.878;2024-03-02T11:59:51;98508.03;;;18.21;42.09
26823;BME280;14852;51.910;8.878;2024-03-02T12:02:21;98509.25;;;18.42;42.29
26823;BME280;14852;51.910;8.878;2024-03-02T12:04:49;98499.25;;;18.54;41.29
26823;BME280;14852;51.910;8.878;2024-03-02T12:07:23;98503.09;;;18.68;41.86
26823;BME280;14852;51.910;8.878;2024-03-02T12:10:09;98512.34;;;18.80;41.34
26823;BME280;14852;51.910;8.878;2024-03-02T12:12:35;98500.63;;;18.83;41.19
26823;BME280;14852;51.910;8.878;2024-03-02T12:15:00;98509.03;;;18.78;39.73
26823;BME280;14852;51.910;8.878;2024-03-02T12:17:26;98503.41;;;18.65;40.42
26823;BME280;14852;51.910;8.878;2024-03-02T12:19:52;98518.28;;;18.48;39.74
26823;BME280;14852;51.910;8.878;2024-03-02T12:22:18;98518.44;;;18.46;40.46
26823;BME280;14852;51.910;8.878;2024-03-02T12:24:45;98512.88;;;18.41;39.88
26823;BME280;14852;51.910;8.878;2024-03-02T12:27:13;98514.16;;;18.37;40.50
26823;BME280;14852;51.910;8.878;2024-03-02T12:29:40;98508.53;;;18.24;39.99
26823;BME280;14852;51.910;8.878;2024-03-02T12:32:07;98507.81;;;18.06;40.08
26823;BME280;14852;51.910;8.878;2024-03-02T12:34:33;98504.63;;;17.94;40.79
26823;BME280;14852;51.910;8.878;2024-03-02T12:37:00;98504.63;;;17.94;40.62
26823;BME280;14852;51.910;8.878;2024-03-02T12:39:25;98500.91;;;18.05;41.08
26823;BME280;14852;51.910;8.878;2024-03-02T12:41:52;98509.44;;;18.07;40.58
26823;BME280;14852;51.910;8.878;2024-03-02T12:44:20;98501.56;;;18.07;40.92
26823;BME280;14852;51.910;8.878;2024-03-02T12:46:46;98499.91;;;18.06;40.23
26823;BME280;14852;51.910;8.878;2024-03-02T12:49:14;98504.81;;;18.01;40.65
26823;BME280;14852;51.910;8.878;2024-03-02T12:51:43;98499.22;;;17.96;40.38
26823;BME280;14852;51.910;8.878;2024-03-02T12:54:12;98494.78;;;17.96;41.04
26823;BME280;14852;51.910;8.878;2024-03-02T12:56:41;98499.84;;;17.90;40.70
26823;BME280;14852;51.910;8.878;2024-03-02T12:59:18;98485.69;;;17.83;40.43
26823;BME280;14852;51.910;8.878;2024-03-02T13:01:55;98484.88;;;17.90;40.69
26823;BME280;14852;51.910;8.878;2024-03-02T13:04:25;98480.16;;;17.94;40.62
26823;BME280;14852;51.910;8.878;2024-03-02T13:06:52;98478.50;;;17.93;40.45
26823;BME280;14852;51.910;8.878;2024-03-02T13:09:18;98478.47;;;17.85;40.72
26823;BME280;14852;51.910;8.878;2024-03-02T13:11:44;98485.66;;;17.75;41.19
26823;BME280;14852;51.910;8.878;2024-03-02T13:14:13;98480.56;;;17.73;41.16